sensor_id;sensor_type;location;lat;lon;timestamp;temperature;humidity
11925;DHT22;6022;48.768;18.608;2023-07-13T00:01:18;22.40;99.90
11925;DHT22;6022;48.768;18.608;2023-07-13T00:03:45;22.40;99.90
11925;DHT22;6022;48.768;18.608;2023-07-13T00:06:13;22.30;99.90
11925;DHT22;6022;48.768;18.608;2023-07-13T00:08:40;21.90;99.90
11925;DHT22;6022;48.768;18.608;2023-07-13T00:11:08;22.10;99.90
11925;DHT22;6022;48.768;18.608;2023-07-13T00:13:38;22.00;99.90
11925;DHT22;6022;48.768;18.608;2023-07-13T00:16:07;22.40;99.90
11925;DHT22;6022;48.768;18.608;2023-07-13T00:18:37;21.90;99.90
11925;DHT22;6022;48.768;18.608;2023-07-13T00:21:10;22.10;99.90
11925;DHT22;6022;48.768;18.608;2023-07-13T00:23:40;22.10;99.90
11925;DHT22;6022;48.768;18.608;2023-07-13T00:26:10;22.00;99.90
11925;DHT22;6022;48.768;18.608;2023-07-13T00:28:40;21.90;99.90
11925;DHT22;6022;48.768;18.608;2023-07-13T00:31:10;21.90;99.90
11925;DHT22;6022;48.768;18.608;2023-07-13T00:33:39;22.00;99.90
11925;DHT22;6022;48.768;18.608;2023-07-13T00:36:08;22.00;99.90
11925;DHT22;6022;48.768;18.608;2023-07-13T00:38:37;21.90;99.90
11925;DHT22;6022;48.768;18.608;2023-07-13T00:41:05;21.70;99.90
11925;DHT22;6022;48.768;18.608;2023-07-13T00:43:35;21.60;99.90
11925;DHT22;6022;48.768;18.608;2023-07-13T00:46:29;21.80;99.90
11925;DHT22;6022;48.768;18.608;2023-07-13T00:49:02;21.80;99.90
11925;DHT22;6022;48.768;18.608;2023-07-13T00:51:50;21.80;99.90
11925;DHT22;6022;48.768;18.608;2023-07-13T00:54:28;21.60;99.90
11925;DHT22;6022;48.768;18.608;2023-07-13T00:57:04;21.80;99.90
11925;DHT22;6022;48.768;18.608;2023-07-13T00:59:40;21.60;99.90
11925;DHT22;6022;48.768;18.608;2023-07-13T01:02:10;21.60;99.90
11925;DHT22;6022;48.768;18.608;2023-07-13T01:04:39;21.70;99.90
11925;DHT22;6022;48.768;18.608;2023-07-13T01:07:06;22.00;99.90
11925;DHT22;6022;48.768;18.608;2023-07-13T01:09:34;21.80;99.90
11925;DHT22;6022;48.768;18.608;2023-07-13T01:12:03;21.80;99.90
11925;DHT22;6022;48.768;18.608;2023-07-13T01:14:31;21.90;99.90
11925;DHT22;6022;48.768;18.608;2023-07-13T01:16:58;21.70;99.90
11925;DHT22;6022;48.768;18.608;2023-07-13T01:19:40;21.80;99.90
11925;DHT22;6022;48.768;18.608;2023-07-13T01:22:19;21.60;99.90
11925;DHT22;6022;48.768;18.608;2023-07-13T01:24:56;21.70;99.90
11925;DHT22;6022;48.768;18.608;2023-07-13T01:27:25;21.50;99.90
11925;DHT22;6022;48.768;18.608;2023-07-13T01:29:53;21.70;99.90
11925;DHT22;6022;48.768;18.608;2023-07-13T01:32:29;21.70;99.90
11925;DHT22;6022;48.768;18.608;2023-07-13T01:34:58;21.60;99.90
11925;DHT22;6022;48.768;18.608;2023-07-13T01:37:26;21.70;99.90
11925;DHT22;6022;48.768;18.608;2023-07-13T01:40:02;21.50;99.90
11925;DHT22;6022;48.768;18.608;2023-07-13T01:42:31;21.50;99.90
11925;DHT22;6022;48.768;18.608;2023-07-13T01:44:58;21.70;99.90
11925;DHT22;6022;48.768;18.608;2023-07-13T01:47:27;21.70;99.90
11925;DHT22;6022;48.768;18.608;2023-07-13T01:49:58;21.70;99.90
11925;DHT22;6022;48.768;18.608;2023-07-13T01:52:25;21.60;99.90
11925;DHT22;6022;48.768;18.608;2023-07-13T01:54:53;21.40;99.90
11925;DHT22;6022;48.768;18.608;2023-07-13T01:57:20;21.40;99.90
11925;DHT22;6022;48.768;18.608;2023-07-13T01:59:48;21.60;99.90
11925;DHT22;6022;48.768;18.608;2023-07-13T02:02:15;21.60;99.90
11925;DHT22;6022;48.768;18.608;2023-07-13T02:04:43;21.60;99.90
11925;DHT22;6022;48.768;18.608;2023-07-13T02:07:11;21.20;99.90
11925;DHT22;6022;48.768;18.608;2023-07-13T02:09:38;21.20;99.90
11925;DHT22;6022;48.768;18.608;2023-07-13T02:12:06;21.10;99.90
11925;DHT22;6022;48.768;18.608;2023-07-13T02:14:34;21.20;99.90
11925;DHT22;6022;48.768;18.608;2023-07-13T02:17:01;21.10;99.90
11925;DHT22;6022;48.768;18.608;2023-07-13T02:19:30;21.30;99.90
11925;DHT22;6022;48.768;18.608;2023-07-13T02:21:58;21.10;99.90
11925;DHT22;6022;48.768;18.608;2023-07-13T02:24:25;21.30;99.90
11925;DHT22;6022;48.768;18.608;2023-07-13T02:26:54;21.30;99.90
11925;DHT22;6022;48.768;18.608;2023-07-13T02:29:22;21.20;99.90
11925;DHT22;6022;48.768;18.608;2023-07-13T02:31:50;21.20;99.90
11925;DHT22;6022;48.768;18.608;2023-07-13T02:34:17;21.00;99.90
11925;DHT22;6022;48.768;18.608;2023-07-13T02:36:45;21.00;99.90
11925;DHT22;6022;48.768;18.608;2023-07-13T02:39:13;21.20;99.90
11925;DHT22;6022;48.768;18.608;2023-07-13T02:41:41;20.90;99.90
11925;DHT22;6022;48.768;18.608;2023-07-13T02:44:08;20.90;99.90
11925;DHT22;6022;48.768;18.608;2023-07-13T02:46:37;20.90;99.90
11925;DHT22;6022;48.768;18.608;2023-07-13T02:49:05;20.80;99.90
11925;DHT22;6022;48.768;18.608;2023-07-13T02:51:32;21.00;99.90
11925;DHT22;6022;48.768;18.608;2023-07-13T02:54:02;20.50;99.90
11925;DHT22;6022;48.768;18.608;2023-07-13T02:56:32;20.90;99.90
11925;DHT22;6022;48.768;18.608;2023-07-13T02:59:20;20.90;99.90
11925;DHT22;6022;48.768;18.608;2023-07-13T03:01:47;20.80;99.90
11925;DHT22;6022;48.768;18.608;2023-07-13T03:04:15;20.90;99.90
11925;DHT22;6022;48.768;18.608;2023-07-13T03:06:47;20.90;99.90
11925;DHT22;6022;48.768;18.608;2023-07-13T03:09:14;20.90;99.90
11925;DHT22;6022;48.768;18.608;2023-07-13T03:11:42;20.90;99.90
11925;DHT22;6022;48.768;18.608;2023-07-13T03:14:10;21.10;99.90
11925;DHT22;6022;48.768;18.608;2023-07-13T03:16:37;21.30;99.90
11925;DHT22;6022;48.768;18.608;2023-07-13T03:19:06;21.00;99.90
11925;DHT22;6022;48.768;18.608;2023-07-13T03:21:33;21.10;99.90
11925;DHT22;6022;48.768;18.608;2023-07-13T03:24:01;21.10;99.90
11925;DHT22;6022;48.768;18.608;2023-07-13T03:26:28;21.00;99.90
11925;DHT22;6022;48.768;18.608;2023-07-13T03:28:55;21.00;99.90
11925;DHT22;6022;48.768;18.608;2023-07-13T03:31:25;21.20;99.90
11925;DHT22;6022;48.768;18.608;2023-07-13T03:33:56;21.20;99.90
11925;DHT22;6022;48.768;18.608;2023-07-13T03:36:26;21.10;99.90
11925;DHT22;6022;48.768;18.608;2023-07-13T03:38:57;21.20;99.90
11925;DHT22;6022;48.768;18.608;2023-07-13T03:41:27;21.20;99.90
11925;DHT22;6022;48.768;18.608;2023-07-13T03:43:54;21.10;99.90
11925;DHT22;6022;48.768;18.608;2023-07-13T03:46:21;20.90;99.90
11925;DHT22;6022;48.768;18.608;2023-07-13T03:48:49;21.20;99.90
11925;DHT22;6022;48.768;18.608;2023-07-13T03:51:17;21.30;99.90
11925;DHT22;6022;48.768;18.608;2023-07-13T03:53:46;21.30;99.90
11925;DHT22;6022;48.768;18.608;2023-07-13T03:56:16;21.40;99.90
11925;DHT22;6022;48.768;18.608;2023-07-13T03:58:49;21.30;99.90
11925;DHT22;6022;48.768;18.608;2023-07-13T04:01:25;21.30;99.90
11925;DHT22;6022;48.768;18.608;2023-07-13T04:03:56;21.20;99.90
11925;DHT22;6022;48.768;18.608;2023-07-13T04:06:27;21.20;99.90
11925;DHT22;6022;48.768;18.608;2023-07-13T04:08:58;21.20;99.90
11925;DHT22;6022;48.768;18.608;2023-07-13T04:11:29;21.10;99.90
11925;DHT22;6022;48.768;18.608;2023-07-13T04:13:58;21.10;99.90
11925;DHT22;6022;48.768;18.608;2023-07-13T04:16:26;21.20;99.90
11925;DHT22;6022;48.768;18.608;2023-07-13T04:18:55;21.30;99.90
11925;DHT22;6022;48.768;18.608;2023-07-13T04:25:38;20.80;99.90
11925;DHT22;6022;48.768;18.608;2023-07-13T04:28:05;21.00;99.90
11925;DHT22;6022;48.768;18.608;2023-07-13T04:30:44;21.30;99.90
11925;DHT22;6022;48.768;18.608;2023-07-13T04:33:12;21.10;99.90
11925;DHT22;6022;48.768;18.608;2023-07-13T04:35:41;21.40;99.90
11925;DHT22;6022;48.768;18.608;2023-07-13T04:38:27;21.60;99.90
11925;DHT22;6022;48.768;18.608;2023-07-13T04:41:00;21.90;99.90
11925;DHT22;6022;48.768;18.608;2023-07-13T04:43:29;22.00;99.90
11925;DHT22;6022;48.768;18.608;2023-07-13T04:46:02;22.60;99.90
11925;DHT22;6022;48.768;18.608;2023-07-13T04:48:39;23.10;99.90
11925;DHT22;6022;48.768;18.608;2023-07-13T04:51:09;23.00;99.90
11925;DHT22;6022;48.768;18.608;2023-07-13T04:53:39;24.30;99.90
11925;DHT22;6022;48.768;18.608;2023-07-13T04:56:07;25.30;99.90
11925;DHT22;6022;48.768;18.608;2023-07-13T04:58:42;25.90;99.90
11925;DHT22;6022;48.768;18.608;2023-07-13T05:01:17;25.90;99.90
11925;DHT22;6022;48.768;18.608;2023-07-13T05:03:53;26.20;99.90
11925;DHT22;6022;48.768;18.608;2023-07-13T05:06:25;25.70;99.90
11925;DHT22;6022;48.768;18.608;2023-07-13T05:08:52;25.40;99.90
11925;DHT22;6022;48.768;18.608;2023-07-13T05:11:25;25.40;99.90
11925;DHT22;6022;48.768;18.608;2023-07-13T05:13:53;25.40;99.90
11925;DHT22;6022;48.768;18.608;2023-07-13T05:16:23;25.10;99.90
11925;DHT22;6022;48.768;18.608;2023-07-13T05:18:54;25.10;99.90
11925;DHT22;6022;48.768;18.608;2023-07-13T05:21:22;24.60;99.90
11925;DHT22;6022;48.768;18.608;2023-07-13T05:23:56;24.20;99.90
11925;DHT22;6022;48.768;18.608;2023-07-13T05:26:28;24.00;99.90
11925;DHT22;6022;48.768;18.608;2023-07-13T05:29:01;23.80;99.90
11925;DHT22;6022;48.768;18.608;2023-07-13T05:31:31;23.60;99.90
11925;DHT22;6022;48.768;18.608;2023-07-13T05:34:02;23.50;99.90
11925;DHT22;6022;48.768;18.608;2023-07-13T05:36:35;23.30;99.90
11925;DHT22;6022;48.768;18.608;2023-07-13T05:39:03;23.10;99.90
11925;DHT22;6022;48.768;18.608;2023-07-13T05:41:36;23.20;99.90
11925;DHT22;6022;48.768;18.608;2023-07-13T05:44:06;22.70;99.90
11925;DHT22;6022;48.768;18.608;2023-07-13T05:46:34;22.30;99.90
11925;DHT22;6022;48.768;18.608;2023-07-13T05:49:10;22.00;99.90
11925;DHT22;6022;48.768;18.608;2023-07-13T05:55:59;22.00;99.90
11925;DHT22;6022;48.768;18.608;2023-07-13T05:58:29;21.90;99.90
11925;DHT22;6022;48.768;18.608;2023-07-13T06:01:02;21.80;99.90
11925;DHT22;6022;48.768;18.608;2023-07-13T06:03:32;22.10;99.90
11925;DHT22;6022;48.768;18.608;2023-07-13T06:05:59;21.80;99.90
11925;DHT22;6022;48.768;18.608;2023-07-13T06:08:30;21.60;99.90
11925;DHT22;6022;48.768;18.608;2023-07-13T06:11:19;21.40;99.90
11925;DHT22;6022;48.768;18.608;2023-07-13T06:13:48;21.20;99.90
11925;DHT22;6022;48.768;18.608;2023-07-13T06:16:16;21.10;99.90
11925;DHT22;6022;48.768;18.608;2023-07-13T06:18:47;20.80;99.90
11925;DHT22;6022;48.768;18.608;2023-07-13T06:21:22;20.80;99.90
11925;DHT22;6022;48.768;18.608;2023-07-13T06:23:51;20.70;99.90
11925;DHT22;6022;48.768;18.608;2023-07-13T06:26:26;20.70;99.90
11925;DHT22;6022;48.768;18.608;2023-07-13T06:28:57;20.60;99.90
11925;DHT22;6022;48.768;18.608;2023-07-13T06:31:25;20.50;99.90
11925;DHT22;6022;48.768;18.608;2023-07-13T06:33:55;20.50;99.90
11925;DHT22;6022;48.768;18.608;2023-07-13T06:36:25;20.50;99.90
11925;DHT22;6022;48.768;18.608;2023-07-13T06:38:55;20.30;99.90
11925;DHT22;6022;48.768;18.608;2023-07-13T06:41:23;20.50;99.90
11925;DHT22;6022;48.768;18.608;2023-07-13T06:44:05;20.60;99.90
11925;DHT22;6022;48.768;18.608;2023-07-13T06:46:33;20.50;99.90
11925;DHT22;6022;48.768;18.608;2023-07-13T06:49:00;20.40;99.90
11925;DHT22;6022;48.768;18.608;2023-07-13T06:51:53;20.50;99.90
11925;DHT22;6022;48.768;18.608;2023-07-13T06:54:20;20.50;99.90
11925;DHT22;6022;48.768;18.608;2023-07-13T06:56:47;20.60;99.90
11925;DHT22;6022;48.768;18.608;2023-07-13T06:59:17;20.40;99.90
11925;DHT22;6022;48.768;18.608;2023-07-13T07:02:06;20.70;99.90
11925;DHT22;6022;48.768;18.608;2023-07-13T07:04:39;20.60;99.90
11925;DHT22;6022;48.768;18.608;2023-07-13T07:07:06;20.60;99.90
11925;DHT22;6022;48.768;18.608;2023-07-13T07:09:34;20.60;99.90
11925;DHT22;6022;48.768;18.608;2023-07-13T07:12:05;20.30;99.90
11925;DHT22;6022;48.768;18.608;2023-07-13T07:14:33;20.30;99.90
11925;DHT22;6022;48.768;18.608;2023-07-13T07:17:02;20.30;99.90
11925;DHT22;6022;48.768;18.608;2023-07-13T07:19:30;20.20;99.90
11925;DHT22;6022;48.768;18.608;2023-07-13T07:21:58;20.60;99.90
11925;DHT22;6022;48.768;18.608;2023-07-13T07:24:25;20.70;99.90
11925;DHT22;6022;48.768;18.608;2023-07-13T07:26:59;20.80;99.90
11925;DHT22;6022;48.768;18.608;2023-07-13T07:29:30;20.80;99.90
11925;DHT22;6022;48.768;18.608;2023-07-13T07:32:00;20.70;99.90
11925;DHT22;6022;48.768;18.608;2023-07-13T07:34:32;20.80;99.90
11925;DHT22;6022;48.768;18.608;2023-07-13T07:37:02;20.80;99.90
11925;DHT22;6022;48.768;18.608;2023-07-13T07:39:33;20.90;99.90
11925;DHT22;6022;48.768;18.608;2023-07-13T07:42:03;21.40;99.90
11925;DHT22;6022;48.768;18.608;2023-07-13T07:44:36;21.10;99.90
11925;DHT22;6022;48.768;18.608;2023-07-13T07:47:13;21.30;99.90
11925;DHT22;6022;48.768;18.608;2023-07-13T07:49:54;21.40;99.90
11925;DHT22;6022;48.768;18.608;2023-07-13T07:52:24;21.30;99.90
11925;DHT22;6022;48.768;18.608;2023-07-13T07:55:04;21.30;99.90
11925;DHT22;6022;48.768;18.608;2023-07-13T07:57:36;21.10;99.90
11925;DHT22;6022;48.768;18.608;2023-07-13T08:00:10;21.10;99.90
11925;DHT22;6022;48.768;18.608;2023-07-13T08:02:41;21.10;99.90
11925;DHT22;6022;48.768;18.608;2023-07-13T08:05:29;21.10;99.90
11925;DHT22;6022;48.768;18.608;2023-07-13T08:08:06;21.30;99.90
11925;DHT22;6022;48.768;18.608;2023-07-13T08:10:36;21.30;99.90
11925;DHT22;6022;48.768;18.608;2023-07-13T08:13:10;21.30;99.90
11925;DHT22;6022;48.768;18.608;2023-07-13T08:15:41;21.30;99.90
11925;DHT22;6022;48.768;18.608;2023-07-13T08:18:10;21.40;99.90
11925;DHT22;6022;48.768;18.608;2023-07-13T08:20:50;21.40;99.90
11925;DHT22;6022;48.768;18.608;2023-07-13T08:23:28;21.30;99.90
11925;DHT22;6022;48.768;18.608;2023-07-13T08:26:09;21.40;99.90
11925;DHT22;6022;48.768;18.608;2023-07-13T08:28:52;21.50;99.90
11925;DHT22;6022;48.768;18.608;2023-07-13T08:31:22;21.40;99.90
11925;DHT22;6022;48.768;18.608;2023-07-13T08:33:50;21.40;99.90
11925;DHT22;6022;48.768;18.608;2023-07-13T08:36:25;21.50;99.90
11925;DHT22;6022;48.768;18.608;2023-07-13T08:39:05;21.50;99.90
11925;DHT22;6022;48.768;18.608;2023-07-13T08:41:50;21.60;99.90
11925;DHT22;6022;48.768;18.608;2023-07-13T08:44:36;21.80;99.90
11925;DHT22;6022;48.768;18.608;2023-07-13T08:47:24;21.80;99.90
11925;DHT22;6022;48.768;18.608;2023-07-13T08:49:58;21.80;99.90
11925;DHT22;6022;48.768;18.608;2023-07-13T08:52:32;21.70;99.90
11925;DHT22;6022;48.768;18.608;2023-07-13T08:55:37;21.70;99.90
11925;DHT22;6022;48.768;18.608;2023-07-13T08:58:14;21.80;99.90
11925;DHT22;6022;48.768;18.608;2023-07-13T09:04:03;21.90;99.90
11925;DHT22;6022;48.768;18.608;2023-07-13T09:07:01;21.80;99.90
11925;DHT22;6022;48.768;18.608;2023-07-13T09:15:50;21.90;99.90
11925;DHT22;6022;48.768;18.608;2023-07-13T09:23:52;21.60;99.90
11925;DHT22;6022;48.768;18.608;2023-07-13T09:26:28;21.50;99.90
11925;DHT22;6022;48.768;18.608;2023-07-13T09:29:06;21.50;99.90
11925;DHT22;6022;48.768;18.608;2023-07-13T09:31:46;21.60;99.90
11925;DHT22;6022;48.768;18.608;2023-07-13T09:34:21;21.70;99.90
11925;DHT22;6022;48.768;18.608;2023-07-13T09:36:51;21.80;99.90
11925;DHT22;6022;48.768;18.608;2023-07-13T09:39:51;21.80;99.90
11925;DHT22;6022;48.768;18.608;2023-07-13T09:42:37;21.80;99.90
11925;DHT22;6022;48.768;18.608;2023-07-13T09:45:09;21.70;99.90
11925;DHT22;6022;48.768;18.608;2023-07-13T09:47:40;21.80;99.90
11925;DHT22;6022;48.768;18.608;2023-07-13T09:50:14;21.80;99.90
11925;DHT22;6022;48.768;18.608;2023-07-13T09:52:47;21.90;99.90
11925;DHT22;6022;48.768;18.608;2023-07-13T09:55:41;21.90;99.90
11925;DHT22;6022;48.768;18.608;2023-07-13T09:58:13;22.30;99.90
11925;DHT22;6022;48.768;18.608;2023-07-13T10:00:59;22.50;99.90
11925;DHT22;6022;48.768;18.608;2023-07-13T10:03:34;22.40;99.90
11925;DHT22;6022;48.768;18.608;2023-07-13T10:06:15;22.80;99.90
11925;DHT22;6022;48.768;18.608;2023-07-13T10:08:45;23.30;99.90
11925;DHT22;6022;48.768;18.608;2023-07-13T10:11:28;23.40;99.90
11925;DHT22;6022;48.768;18.608;2023-07-13T10:14:02;24.40;99.90
11925;DHT22;6022;48.768;18.608;2023-07-13T10:16:41;24.50;99.90
11925;DHT22;6022;48.768;18.608;2023-07-13T10:21:56;26.00;99.90
11925;DHT22;6022;48.768;18.608;2023-07-13T10:24:32;27.50;99.90
11925;DHT22;6022;48.768;18.608;2023-07-13T10:27:19;27.70;99.90
11925;DHT22;6022;48.768;18.608;2023-07-13T10:30:06;28.10;99.90
11925;DHT22;6022;48.768;18.608;2023-07-13T10:32:43;27.80;99.90
11925;DHT22;6022;48.768;18.608;2023-07-13T10:35:14;28.20;99.90
11925;DHT22;6022;48.768;18.608;2023-07-13T10:37:47;28.60;99.90
11925;DHT22;6022;48.768;18.608;2023-07-13T10:40:27;28.30;99.90
11925;DHT22;6022;48.768;18.608;2023-07-13T10:43:01;28.30;99.90
11925;DHT22;6022;48.768;18.608;2023-07-13T10:53:20;29.10;99.90
11925;DHT22;6022;48.768;18.608;2023-07-13T10:56:29;29.10;99.90
11925;DHT22;6022;48.768;18.608;2023-07-13T11:02:40;29.00;99.90
11925;DHT22;6022;48.768;18.608;2023-07-13T11:05:29;29.20;99.90
11925;DHT22;6022;48.768;18.608;2023-07-13T11:11:38;29.50;99.90
11925;DHT22;6022;48.768;18.608;2023-07-13T11:14:28;29.50;99.90
11925;DHT22;6022;48.768;18.608;2023-07-13T11:17:50;28.90;99.90
11925;DHT22;6022;48.768;18.608;2023-07-13T11:20:36;27.70;99.90
11925;DHT22;6022;48.768;18.608;2023-07-13T11:25:40;27.10;99.90
11925;DHT22;6022;48.768;18.608;2023-07-13T11:31:14;27.00;99.90
11925;DHT22;6022;48.768;18.608;2023-07-13T11:37:35;26.50;99.90
11925;DHT22;6022;48.768;18.608;2023-07-13T11:40:44;26.30;99.90
11925;DHT22;6022;48.768;18.608;2023-07-13T11:46:27;26.10;99.90
11925;DHT22;6022;48.768;18.608;2023-07-13T11:49:11;26.00;99.90
11925;DHT22;6022;48.768;18.608;2023-07-13T11:51:45;25.70;99.90
11925;DHT22;6022;48.768;18.608;2023-07-13T11:54:43;25.70;99.90
11925;DHT22;6022;48.768;18.608;2023-07-13T11:57:31;25.70;99.90
11925;DHT22;6022;48.768;18.608;2023-07-13T12:00:29;25.50;99.90
11925;DHT22;6022;48.768;18.608;2023-07-13T12:03:10;25.70;99.90
11925;DHT22;6022;48.768;18.608;2023-07-13T12:06:01;25.50;99.90
11925;DHT22;6022;48.768;18.608;2023-07-13T12:08:43;25.40;99.90
11925;DHT22;6022;48.768;18.608;2023-07-13T12:11:16;25.30;99.90
11925;DHT22;6022;48.768;18.608;2023-07-13T12:13:48;24.90;99.90
11925;DHT22;6022;48.768;18.608;2023-07-13T12:16:33;24.80;99.90
11925;DHT22;6022;48.768;18.608;2023-07-13T12:19:02;24.80;99.90
11925;DHT22;6022;48.768;18.608;2023-07-13T12:21:38;24.80;99.90
11925;DHT22;6022;48.768;18.608;2023-07-13T12:24:17;24.90;99.90
11925;DHT22;6022;48.768;18.608;2023-07-13T12:26:59;24.90;99.90
11925;DHT22;6022;48.768;18.608;2023-07-13T12:30:03;25.10;99.90
11925;DHT22;6022;48.768;18.608;2023-07-13T12:33:15;25.50;99.90
11925;DHT22;6022;48.768;18.608;2023-07-13T12:35:50;25.70;99.90
11925;DHT22;6022;48.768;18.608;2023-07-13T12:38:35;26.20;99.90
11925;DHT22;6022;48.768;18.608;2023-07-13T12:41:10;26.10;99.90
11925;DHT22;6022;48.768;18.608;2023-07-13T12:44:31;26.70;99.90
11925;DHT22;6022;48.768;18.608;2023-07-13T12:47:13;26.80;99.90
11925;DHT22;6022;48.768;18.608;2023-07-13T12:49:59;26.60;99.90
11925;DHT22;6022;48.768;18.608;2023-07-13T12:52:50;26.80;99.90
11925;DHT22;6022;48.768;18.608;2023-07-13T12:55:30;26.30;99.90
11925;DHT22;6022;48.768;18.608;2023-07-13T12:58:25;26.50;99.90
11925;DHT22;6022;48.768;18.608;2023-07-13T13:01:21;26.40;99.90
11925;DHT22;6022;48.768;18.608;2023-07-13T13:04:13;26.40;99.90
11925;DHT22;6022;48.768;18.608;2023-07-13T13:07:03;26.60;99.90
11925;DHT22;6022;48.768;18.608;2023-07-13T13:10:12;26.60;99.90
11925;DHT22;6022;48.768;18.608;2023-07-13T13:12:41;26.80;99.90
11925;DHT22;6022;48.768;18.608;2023-07-13T13:15:12;27.00;99.90
11925;DHT22;6022;48.768;18.608;2023-07-13T13:17:45;26.90;99.90
11925;DHT22;6022;48.768;18.608;2023-07-13T13:20:20;26.90;99.90
11925;DHT22;6022;48.768;18.608;2023-07-13T13:23:18;26.70;99.90
11925;DHT22;6022;48.768;18.608;2023-07-13T13:25:51;26.40;99.90
11925;DHT22;6022;48.768;18.608;2023-07-13T13:28:22;26.20;99.90
11925;DHT22;6022;48.768;18.608;2023-07-13T13:30:52;26.10;99.90
11925;DHT22;6022;48.768;18.608;2023-07-13T13:33:23;25.00;99.90
11925;DHT22;6022;48.768;18.608;2023-07-13T13:35:51;24.50;99.90
11925;DHT22;6022;48.768;18.608;2023-07-13T13:38:27;24.30;99.90
11925;DHT22;6022;48.768;18.608;2023-07-13T13:41:01;23.60;99.90
11925;DHT22;6022;48.768;18.608;2023-07-13T13:43:41;23.30;99.90
11925;DHT22;6022;48.768;18.608;2023-07-13T13:46:23;23.30;99.90
11925;DHT22;6022;48.768;18.608;2023-07-13T13:49:27;22.90;99.90
11925;DHT22;6022;48.768;18.608;2023-07-13T13:52:08;23.10;99.90
11925;DHT22;6022;48.768;18.608;2023-07-13T13:55:01;23.20;99.90
11925;DHT22;6022;48.768;18.608;2023-07-13T13:57:28;23.20;99.90
11925;DHT22;6022;48.768;18.608;2023-07-13T13:59:58;23.10;99.90
11925;DHT22;6022;48.768;18.608;2023-07-13T14:02:36;23.30;99.90
11925;DHT22;6022;48.768;18.608;2023-07-13T14:05:15;22.90;99.90
11925;DHT22;6022;48.768;18.608;2023-07-13T14:07:54;22.80;99.90
11925;DHT22;6022;48.768;18.608;2023-07-13T14:10:27;22.80;99.90
11925;DHT22;6022;48.768;18.608;2023-07-13T14:12:57;22.90;99.90
11925;DHT22;6022;48.768;18.608;2023-07-13T14:15:27;22.60;99.90
11925;DHT22;6022;48.768;18.608;2023-07-13T14:18:12;22.60;99.90
11925;DHT22;6022;48.768;18.608;2023-07-13T14:20:46;23.00;99.90
11925;DHT22;6022;48.768;18.608;2023-07-13T14:23:20;23.20;99.90
11925;DHT22;6022;48.768;18.608;2023-07-13T14:26:02;23.10;99.90
11925;DHT22;6022;48.768;18.608;2023-07-13T14:28:41;23.10;99.90
11925;DHT22;6022;48.768;18.608;2023-07-13T14:31:35;23.40;99.90
11925;DHT22;6022;48.768;18.608;2023-07-13T14:34:16;23.00;99.90
11925;DHT22;6022;48.768;18.608;2023-07-13T14:36:52;23.00;99.90
11925;DHT22;6022;48.768;18.608;2023-07-13T14:39:24;22.90;99.90
11925;DHT22;6022;48.768;18.608;2023-07-13T14:41:58;22.80;99.90
11925;DHT22;6022;48.768;18.608;2023-07-13T14:44:40;22.70;99.90
11925;DHT22;6022;48.768;18.608;2023-07-13T14:47:12;22.90;99.90
11925;DHT22;6022;48.768;18.608;2023-07-13T14:49:44;23.00;99.90
11925;DHT22;6022;48.768;18.608;2023-07-13T14:52:40;23.30;99.90
11925;DHT22;6022;48.768;18.608;2023-07-13T14:55:26;23.20;99.90
11925;DHT22;6022;48.768;18.608;2023-07-13T14:57:54;23.50;99.90
11925;DHT22;6022;48.768;18.608;2023-07-13T15:00:22;23.50;99.90
11925;DHT22;6022;48.768;18.608;2023-07-13T15:02:57;23.60;99.90
11925;DHT22;6022;48.768;18.608;2023-07-13T15:05:32;23.60;99.90
11925;DHT22;6022;48.768;18.608;2023-07-13T15:08:04;23.90;99.90
11925;DHT22;6022;48.768;18.608;2023-07-13T15:10:45;23.60;99.90
11925;DHT22;6022;48.768;18.608;2023-07-13T15:13:15;23.60;99.90
11925;DHT22;6022;48.768;18.608;2023-07-13T15:15:50;23.80;99.90
11925;DHT22;6022;48.768;18.608;2023-07-13T15:18:23;23.90;99.90
11925;DHT22;6022;48.768;18.608;2023-07-13T15:20:55;23.80;99.90
11925;DHT22;6022;48.768;18.608;2023-07-13T15:23:43;23.80;99.90
11925;DHT22;6022;48.768;18.608;2023-07-13T15:26:16;23.60;99.90
11925;DHT22;6022;48.768;18.608;2023-07-13T15:28:47;23.80;99.90
11925;DHT22;6022;48.768;18.608;2023-07-13T15:31:23;23.80;99.90
11925;DHT22;6022;48.768;18.608;2023-07-13T15:33:56;23.70;99.90
11925;DHT22;6022;48.768;18.608;2023-07-13T15:36:26;24.00;99.90
11925;DHT22;6022;48.768;18.608;2023-07-13T15:38:57;23.70;99.90
11925;DHT22;6022;48.768;18.608;2023-07-13T15:41:28;23.80;99.90
11925;DHT22;6022;48.768;18.608;2023-07-13T15:43:58;23.90;99.90
11925;DHT22;6022;48.768;18.608;2023-07-13T15:46:34;23.80;99.90
11925;DHT22;6022;48.768;18.608;2023-07-13T15:49:46;23.60;99.90
11925;DHT22;6022;48.768;18.608;2023-07-13T15:52:31;23.40;99.90
11925;DHT22;6022;48.768;18.608;2023-07-13T15:55:00;23.50;99.90
11925;DHT22;6022;48.768;18.608;2023-07-13T15:57:29;23.70;99.90
11925;DHT22;6022;48.768;18.608;2023-07-13T16:00:01;23.40;99.90
11925;DHT22;6022;48.768;18.608;2023-07-13T16:02:33;23.70;99.90
11925;DHT22;6022;48.768;18.608;2023-07-13T16:05:05;23.60;99.90
11925;DHT22;6022;48.768;18.608;2023-07-13T16:07:33;23.60;99.90
11925;DHT22;6022;48.768;18.608;2023-07-13T16:10:01;23.70;99.90
11925;DHT22;6022;48.768;18.608;2023-07-13T16:12:28;23.70;99.90
11925;DHT22;6022;48.768;18.608;2023-07-13T16:19:04;23.50;99.90
11925;DHT22;6022;48.768;18.608;2023-07-13T16:21:46;23.60;99.90
11925;DHT22;6022;48.768;18.608;2023-07-13T16:24:23;23.50;99.90
11925;DHT22;6022;48.768;18.608;2023-07-13T16:26:53;23.50;99.90
11925;DHT22;6022;48.768;18.608;2023-07-13T16:29:28;23.60;99.90
11925;DHT22;6022;48.768;18.608;2023-07-13T16:32:15;23.40;99.90
11925;DHT22;6022;48.768;18.608;2023-07-13T16:34:53;23.50;99.90
11925;DHT22;6022;48.768;18.608;2023-07-13T16:37:26;23.40;99.90
11925;DHT22;6022;48.768;18.608;2023-07-13T16:40:02;23.40;99.90
11925;DHT22;6022;48.768;18.608;2023-07-13T16:42:48;23.30;99.90
11925;DHT22;6022;48.768;18.608;2023-07-13T16:45:26;23.30;99.90
11925;DHT22;6022;48.768;18.608;2023-07-13T16:48:02;23.20;99.90
11925;DHT22;6022;48.768;18.608;2023-07-13T16:50:38;23.10;99.90
11925;DHT22;6022;48.768;18.608;2023-07-13T16:53:24;23.10;99.90
11925;DHT22;6022;48.768;18.608;2023-07-13T16:55:57;23.20;99.90
11925;DHT22;6022;48.768;18.608;2023-07-13T16:58:32;23.00;99.90
11925;DHT22;6022;48.768;18.608;2023-07-13T17:01:07;23.20;99.90
11925;DHT22;6022;48.768;18.608;2023-07-13T17:04:26;23.00;99.90
11925;DHT22;6022;48.768;18.608;2023-07-13T17:07:03;22.90;99.90
11925;DHT22;6022;48.768;18.608;2023-07-13T17:09:42;23.00;99.90
11925;DHT22;6022;48.768;18.608;2023-07-13T17:12:27;22.90;99.90
11925;DHT22;6022;48.768;18.608;2023-07-13T17:14:57;22.90;99.90
11925;DHT22;6022;48.768;18.608;2023-07-13T17:17:48;22.90;99.90